createdAt,value
2022-10-13T00:00:14.634Z,10.40
2022-10-13T00:02:41.379Z,10.40
2022-10-13T00:05:08.843Z,10.40
2022-10-13T00:07:35.610Z,10.40
2022-10-13T00:10:02.378Z,10.30
2022-10-13T00:12:31.294Z,10.20
2022-10-13T00:14:58.334Z,10.20
2022-10-13T00:17:25.109Z,10.10
2022-10-13T00:19:54.172Z,10.10
2022-10-13T00:22:21.245Z,10.10
2022-10-13T00:24:52.118Z,10.10
2022-10-13T00:27:19.082Z,10.10
2022-10-13T00:29:46.048Z,10.10
2022-10-13T00:32:15.501Z,10.10
2022-10-13T00:34:42.365Z,10.10
2022-10-13T00:37:09.134Z,10.00
2022-10-13T00:39:37.220Z,10.00
2022-10-13T00:42:04.308Z,10.00
2022-10-13T00:44:55.744Z,10.00
2022-10-13T00:47:22.506Z,10.00
2022-10-13T00:49:49.583Z,9.90
2022-10-13T00:52:16.589Z,9.90
2022-10-13T00:54:46.187Z,9.90
2022-10-13T00:57:15.528Z,9.90
2022-10-13T00:59:42.276Z,9.80
2022-10-13T01:02:09.078Z,9.80
2022-10-13T01:04:41.114Z,9.80
2022-10-13T01:07:10.681Z,9.90
2022-10-13T01:09:37.967Z,9.90
2022-10-13T01:12:26.677Z,9.80
2022-10-13T01:15:07.962Z,9.80
2022-10-13T01:18:27.087Z,9.80
2022-10-13T01:21:06.863Z,9.80
2022-10-13T01:23:59.195Z,9.70
2022-10-13T01:26:29.018Z,9.60
2022-10-13T01:29:14.353Z,9.60
2022-10-13T01:31:42.255Z,9.60
2022-10-13T01:34:23.274Z,9.60
2022-10-13T01:37:03.619Z,9.60
2022-10-13T01:39:50.654Z,9.60
2022-10-13T01:42:49.696Z,9.60
2022-10-13T01:45:17.897Z,9.60
2022-10-13T01:47:44.727Z,9.60
2022-10-13T01:50:11.458Z,9.60
2022-10-13T01:52:43.029Z,9.60
2022-10-13T01:55:13.770Z,9.50
2022-10-13T01:57:44.684Z,9.50
2022-10-13T02:00:13.434Z,9.50
2022-10-13T02:02:43.749Z,9.50
2022-10-13T02:05:30.975Z,9.50
2022-10-13T02:08:09.331Z,9.50
2022-10-13T02:10:45.639Z,9.40
2022-10-13T02:13:15.504Z,9.40
2022-10-13T02:15:47.541Z,9.40
2022-10-13T02:18:22.838Z,9.50
2022-10-13T02:20:52.102Z,9.40
2022-10-13T02:23:19.146Z,9.40
2022-10-13T02:25:46.233Z,9.40
2022-10-13T02:28:15.653Z,9.40
2022-10-13T02:30:42.664Z,9.40
2022-10-13T02:33:09.642Z,9.40
2022-10-13T02:35:38.971Z,9.40
2022-10-13T02:38:08.335Z,9.40
2022-10-13T02:40:37.385Z,9.30
2022-10-13T02:43:04.250Z,9.30
2022-10-13T02:45:33.609Z,9.30
2022-10-13T02:48:00.413Z,9.30
2022-10-13T02:50:27.215Z,9.20
2022-10-13T02:52:54.045Z,9.20
2022-10-13T02:55:20.885Z,9.20
2022-10-13T02:57:47.689Z,9.20
2022-10-13T03:00:17.303Z,9.10
2022-10-13T03:02:44.099Z,9.10
2022-10-13T03:05:11.032Z,9.00
2022-10-13T03:07:40.258Z,9.00
2022-10-13T03:10:07.752Z,9.00
2022-10-13T03:12:36.633Z,9.00
2022-10-13T03:15:06.645Z,9.00
2022-10-13T03:17:33.384Z,8.90
2022-10-13T03:20:00.172Z,8.90
2022-10-13T03:22:29.483Z,8.90
2022-10-13T03:24:56.594Z,8.90
2022-10-13T03:27:23.337Z,8.80
2022-10-13T03:29:50.074Z,8.80
2022-10-13T03:32:19.283Z,8.80
2022-10-13T03:34:48.964Z,8.90
2022-10-13T03:37:18.231Z,8.90
2022-10-13T03:39:47.226Z,8.80
2022-10-13T03:42:16.697Z,8.80
2022-10-13T03:44:45.726Z,8.80
2022-10-13T03:47:12.530Z,8.80
2022-10-13T03:49:41.531Z,8.80
2022-10-13T03:52:09.399Z,8.80
2022-10-13T03:54:36.203Z,8.90
2022-10-13T03:57:07.828Z,8.90
2022-10-13T03:59:36.901Z,8.90
2022-10-13T04:02:06.928Z,8.80
2022-10-13T04:04:34.278Z,8.80
2022-10-13T04:07:01.411Z,8.80
2022-10-13T04:09:28.212Z,8.70
2022-10-13T04:11:57.450Z,8.60
2022-10-13T04:14:24.224Z,8.60
2022-10-13T04:16:51.005Z,8.50
2022-10-13T04:19:17.799Z,8.50
2022-10-13T04:21:47.027Z,8.40
2022-10-13T04:24:21.960Z,8.40
2022-10-13T04:26:51.011Z,8.30
2022-10-13T04:29:17.805Z,8.30
2022-10-13T04:31:44.575Z,8.30
2022-10-13T04:34:12.175Z,8.30
2022-10-13T04:36:38.930Z,8.40
2022-10-13T04:39:05.760Z,8.40
2022-10-13T04:41:32.551Z,8.40
2022-10-13T04:44:02.283Z,8.50
2022-10-13T04:46:29.295Z,8.50
2022-10-13T04:48:58.657Z,8.40
2022-10-13T04:51:25.994Z,8.40
2022-10-13T04:54:01.345Z,8.40
2022-10-13T04:56:28.391Z,8.30
2022-10-13T04:58:55.159Z,8.30
2022-10-13T05:01:23.882Z,8.20
2022-10-13T05:03:55.724Z,8.20
2022-10-13T05:06:25.563Z,8.10
2022-10-13T05:08:52.359Z,8.10
2022-10-13T05:11:20.608Z,8.10
2022-10-13T05:13:48.169Z,8.10
2022-10-13T05:16:15.853Z,8.10
2022-10-13T05:18:44.829Z,8.10
2022-10-13T05:21:16.660Z,8.10
2022-10-13T05:23:43.530Z,8.00
2022-10-13T05:26:14.832Z,8.00
2022-10-13T05:28:41.725Z,8.00
2022-10-13T05:31:20.142Z,8.00
2022-10-13T05:33:47.390Z,8.00
2022-10-13T05:36:21.989Z,8.00
2022-10-13T05:38:53.085Z,8.00
2022-10-13T05:41:20.327Z,8.00
2022-10-13T05:43:49.549Z,8.10
2022-10-13T05:46:16.308Z,8.10
2022-10-13T05:48:48.046Z,8.10
2022-10-13T05:51:18.049Z,8.20
2022-10-13T05:53:59.360Z,8.20
2022-10-13T05:56:27.342Z,8.20
2022-10-13T05:58:57.653Z,8.20
2022-10-13T06:01:25.149Z,8.30
2022-10-13T06:03:52.986Z,8.30
2022-10-13T06:06:21.925Z,8.40
2022-10-13T06:08:49.571Z,8.40
2022-10-13T06:11:16.380Z,8.50
2022-10-13T06:13:43.169Z,8.60
2022-10-13T06:16:12.533Z,8.60
2022-10-13T06:18:41.574Z,8.70
2022-10-13T06:21:08.309Z,8.70
2022-10-13T06:23:35.153Z,8.80
2022-10-13T06:26:01.879Z,8.80
2022-10-13T06:28:28.730Z,8.90
2022-10-13T06:30:57.048Z,8.90
2022-10-13T06:33:28.583Z,9.00
2022-10-13T06:35:59.375Z,9.10
2022-10-13T06:38:26.176Z,9.10
2022-10-13T06:40:55.435Z,9.20
2022-10-13T06:43:24.133Z,9.20
2022-10-13T06:45:54.265Z,9.30
2022-10-13T06:48:23.654Z,9.30
2022-10-13T06:50:55.066Z,9.40
2022-10-13T06:53:23.991Z,9.50
2022-10-13T06:55:55.537Z,9.50
2022-10-13T06:58:22.307Z,9.50
2022-10-13T07:00:49.093Z,9.60
2022-10-13T07:03:20.825Z,9.70
2022-10-13T07:05:47.572Z,9.70
2022-10-13T07:08:16.563Z,9.80
2022-10-13T07:10:45.561Z,9.80
2022-10-13T07:13:14.619Z,9.90
2022-10-13T07:15:43.879Z,10.00
2022-10-13T07:18:17.831Z,10.00
2022-10-13T07:20:44.603Z,10.10
2022-10-13T07:23:11.384Z,10.10
2022-10-13T07:25:38.208Z,10.10
2022-10-13T07:28:07.395Z,10.20
2022-10-13T07:30:34.214Z,10.20
2022-10-13T07:33:01.178Z,10.30
2022-10-13T07:35:30.737Z,10.40
2022-10-13T07:37:57.912Z,10.40
2022-10-13T07:40:24.885Z,10.50
2022-10-13T07:42:51.686Z,10.60
2022-10-13T07:45:20.784Z,10.60
2022-10-13T07:47:47.600Z,10.80
2022-10-13T07:50:14.470Z,10.80
2022-10-13T07:52:43.489Z,10.80
2022-10-13T07:55:10.251Z,10.90
2022-10-13T07:57:36.973Z,10.90
2022-10-13T08:00:06.638Z,11.00
2022-10-13T08:02:33.999Z,11.10
2022-10-13T08:05:00.834Z,11.10
2022-10-13T08:07:27.768Z,11.20
2022-10-13T08:09:54.540Z,11.20
2022-10-13T08:12:21.684Z,11.30
2022-10-13T08:14:53.341Z,11.30
2022-10-13T08:17:20.374Z,11.40
2022-10-13T08:19:50.497Z,11.40
2022-10-13T08:22:17.305Z,11.50
2022-10-13T08:24:44.063Z,11.50
2022-10-13T08:27:14.971Z,11.50
2022-10-13T08:29:42.995Z,11.60
2022-10-13T08:32:09.773Z,11.70
2022-10-13T08:34:36.959Z,11.70
2022-10-13T08:37:03.743Z,11.80
2022-10-13T08:39:30.670Z,11.80
2022-10-13T08:41:59.518Z,11.90
2022-10-13T08:47:28.738Z,12.00
2022-10-13T08:49:59.990Z,12.10
2022-10-13T08:52:30.614Z,12.00
2022-10-13T08:54:58.543Z,12.10
2022-10-13T08:57:25.296Z,12.10
2022-10-13T08:59:54.568Z,12.20
2022-10-13T09:02:29.241Z,12.30
2022-10-13T09:04:55.967Z,12.30
2022-10-13T09:07:28.883Z,12.30
2022-10-13T09:10:00.299Z,12.40
2022-10-13T09:12:27.069Z,12.40
2022-10-13T09:15:12.047Z,12.50
2022-10-13T09:17:43.898Z,12.60
2022-10-13T09:20:24.994Z,12.70
2022-10-13T09:23:13.931Z,12.70
2022-10-13T09:25:42.627Z,12.80
2022-10-13T09:28:26.778Z,12.80
2022-10-13T09:31:01.106Z,12.80
2022-10-13T09:33:27.853Z,12.90
2022-10-13T09:36:00.282Z,12.90
2022-10-13T09:38:27.264Z,12.90
2022-10-13T09:41:09.155Z,12.90
2022-10-13T09:43:36.887Z,13.00
2022-10-13T09:46:14.936Z,13.00
2022-10-13T09:48:46.492Z,13.10
2022-10-13T09:51:37.986Z,13.10
2022-10-13T09:54:24.382Z,13.20
2022-10-13T09:56:54.712Z,13.20
2022-10-13T09:59:34.153Z,13.30
2022-10-13T10:02:18.001Z,13.40
2022-10-13T10:04:47.026Z,13.50
2022-10-13T10:07:22.227Z,13.60
2022-10-13T10:09:54.902Z,13.50
2022-10-13T10:12:27.597Z,13.60
2022-10-13T10:14:57.270Z,13.60
2022-10-13T10:17:47.430Z,13.60
2022-10-13T10:20:35.358Z,13.70
2022-10-13T10:23:11.189Z,13.70
2022-10-13T10:25:44.953Z,13.70
2022-10-13T10:28:29.866Z,13.70
2022-10-13T10:31:06.946Z,13.70
2022-10-13T10:33:48.656Z,13.80
2022-10-13T10:36:22.377Z,13.90
2022-10-13T10:39:22.346Z,13.80
2022-10-13T10:42:07.474Z,13.80
2022-10-13T10:44:41.448Z,13.90
2022-10-13T10:47:32.507Z,13.90
2022-10-13T10:50:04.538Z,14.00
2022-10-13T10:53:00.893Z,14.00
2022-10-13T10:55:34.406Z,14.00
2022-10-13T10:58:31.552Z,14.00
2022-10-13T11:01:19.581Z,14.10
2022-10-13T11:03:54.853Z,14.10
2022-10-13T11:06:24.532Z,14.20
2022-10-13T11:08:51.267Z,14.20
2022-10-13T11:11:26.611Z,14.20
2022-10-13T11:14:06.879Z,14.20
2022-10-13T11:16:33.641Z,14.30
2022-10-13T11:19:05.925Z,14.20
2022-10-13T11:21:54.682Z,14.20
2022-10-13T11:24:48.872Z,14.30
2022-10-13T11:27:15.681Z,14.30
2022-10-13T11:29:57.445Z,14.30
2022-10-13T11:32:41.670Z,14.30
2022-10-13T11:35:08.451Z,14.30
2022-10-13T11:37:38.257Z,14.40
2022-10-13T11:40:25.852Z,14.40
2022-10-13T11:43:05.164Z,14.40
2022-10-13T11:45:41.130Z,14.40
2022-10-13T11:48:22.987Z,14.40
2022-10-13T11:51:33.615Z,14.50
2022-10-13T11:54:09.322Z,14.50
2022-10-13T11:56:48.257Z,14.50
2022-10-13T11:59:29.182Z,14.60
2022-10-13T12:02:19.634Z,14.60
2022-10-13T12:05:19.206Z,14.60
2022-10-13T12:07:46.466Z,14.60
2022-10-13T12:10:39.526Z,14.60
2022-10-13T12:13:06.398Z,14.60
2022-10-13T12:15:41.227Z,14.60
2022-10-13T12:18:40.251Z,14.70
2022-10-13T12:21:14.322Z,14.70
2022-10-13T12:23:43.226Z,14.70
2022-10-13T12:26:23.047Z,14.70
2022-10-13T12:28:57.681Z,14.80
2022-10-13T12:31:28.035Z,14.80
2022-10-13T12:34:01.632Z,14.70
2022-10-13T12:36:32.682Z,14.80
2022-10-13T12:39:03.827Z,14.80
2022-10-13T12:41:40.192Z,14.80
2022-10-13T12:44:10.466Z,14.90
2022-10-13T12:46:47.888Z,14.80
2022-10-13T12:51:53.846Z,14.90
2022-10-13T12:54:23.665Z,14.90
2022-10-13T12:56:56.415Z,14.90
2022-10-13T12:59:26.559Z,14.90
2022-10-13T13:02:03.147Z,14.90
2022-10-13T13:04:37.279Z,15.00
2022-10-13T13:07:06.855Z,15.00
2022-10-13T13:09:34.881Z,15.00
2022-10-13T13:12:05.831Z,14.90
2022-10-13T13:14:36.541Z,14.90
2022-10-13T13:17:45.351Z,14.90
2022-10-13T13:20:40.048Z,14.90
2022-10-13T13:23:06.781Z,14.80
2022-10-13T13:25:33.573Z,14.80
2022-10-13T13:28:02.428Z,14.80
2022-10-13T13:30:29.155Z,14.80
2022-10-13T13:32:55.914Z,14.80
2022-10-13T13:35:22.667Z,14.80
2022-10-13T13:37:52.397Z,14.80
2022-10-13T13:40:21.283Z,14.80
2022-10-13T13:42:50.621Z,14.80
2022-10-13T13:45:19.346Z,14.90
2022-10-13T13:47:47.020Z,14.80
2022-10-13T13:50:26.571Z,14.80
2022-10-13T13:52:53.313Z,14.80
2022-10-13T13:55:23.359Z,14.70
2022-10-13T13:57:50.097Z,14.70
2022-10-13T14:00:17.296Z,14.70
2022-10-13T14:02:44.405Z,14.70
2022-10-13T14:05:13.691Z,14.70
2022-10-13T14:07:40.723Z,14.60
2022-10-13T14:10:08.504Z,14.70
2022-10-13T14:12:35.287Z,14.70
2022-10-13T14:15:02.040Z,14.60
2022-10-13T14:17:31.271Z,14.60
2022-10-13T14:19:58.013Z,14.60
2022-10-13T14:22:27.455Z,14.60
2022-10-13T14:24:56.539Z,14.60
2022-10-13T14:27:23.310Z,14.60
2022-10-13T14:29:50.064Z,14.60
2022-10-13T14:32:16.910Z,14.70
2022-10-13T14:34:43.672Z,14.70
2022-10-13T14:37:10.530Z,14.60
2022-10-13T14:39:39.765Z,14.60
2022-10-13T14:42:06.695Z,14.60
2022-10-13T14:44:33.452Z,14.60
2022-10-13T14:47:00.197Z,14.60
2022-10-13T14:49:29.157Z,14.60
2022-10-13T14:51:58.408Z,14.60
2022-10-13T14:54:27.317Z,14.60
2022-10-13T14:56:54.137Z,14.60
2022-10-13T14:59:20.961Z,14.50
2022-10-13T15:01:49.975Z,14.60
2022-10-13T15:04:16.774Z,14.50
2022-10-13T15:06:43.549Z,14.50
2022-10-13T15:09:10.606Z,14.50
2022-10-13T15:11:37.686Z,14.50
2022-10-13T15:14:04.619Z,14.50
2022-10-13T15:16:34.161Z,14.50
2022-10-13T15:19:01.266Z,14.50
2022-10-13T15:21:28.103Z,14.50
2022-10-13T15:23:55.611Z,14.50
2022-10-13T15:26:22.563Z,14.50
2022-10-13T15:28:52.735Z,14.50
2022-10-13T15:31:20.495Z,14.50
2022-10-13T15:33:52.055Z,14.50
2022-10-13T15:36:19.545Z,14.40
2022-10-13T15:38:46.389Z,14.40
2022-10-13T15:41:13.348Z,14.40
2022-10-13T15:43:40.318Z,14.40
2022-10-13T15:46:21.477Z,14.30
2022-10-13T15:48:50.906Z,14.30
2022-10-13T15:51:19.547Z,14.30
2022-10-13T15:53:47.132Z,14.30
2022-10-13T15:56:16.573Z,14.30
2022-10-13T15:58:43.764Z,14.20
2022-10-13T16:01:11.393Z,14.20
2022-10-13T16:03:38.364Z,14.20
2022-10-13T16:06:06.214Z,14.10
2022-10-13T16:08:35.725Z,14.10
2022-10-13T16:11:04.104Z,14.10
2022-10-13T16:13:30.862Z,14.10
2022-10-13T16:15:58.527Z,14.10
2022-10-13T16:18:30.988Z,14.00
2022-10-13T16:20:57.930Z,14.00
2022-10-13T16:23:27.919Z,14.00
2022-10-13T16:25:56.789Z,13.90
2022-10-13T16:28:23.547Z,13.90
2022-10-13T16:30:50.345Z,13.90
2022-10-13T16:33:19.296Z,13.90
2022-10-13T16:35:46.109Z,13.90
2022-10-13T16:38:15.210Z,13.90
2022-10-13T16:40:44.127Z,13.90
2022-10-13T16:43:10.876Z,13.80
2022-10-13T16:45:58.758Z,13.80
2022-10-13T16:48:26.298Z,13.80
2022-10-13T16:50:53.156Z,13.80
2022-10-13T16:53:20.124Z,13.80
2022-10-13T16:55:46.926Z,13.80
2022-10-13T16:58:13.709Z,13.80
2022-10-13T17:00:40.566Z,13.80
2022-10-13T17:03:07.499Z,13.80
2022-10-13T17:05:36.461Z,13.70
2022-10-13T17:08:05.550Z,13.70
2022-10-13T17:10:34.678Z,13.70
2022-10-13T17:13:01.648Z,13.70
2022-10-13T17:15:28.432Z,13.60
2022-10-13T17:17:57.665Z,13.60
2022-10-13T17:20:24.448Z,13.50
2022-10-13T17:22:51.291Z,13.50
2022-10-13T17:25:18.006Z,13.50
2022-10-13T17:27:44.785Z,13.50
2022-10-13T17:30:11.859Z,13.40
2022-10-13T17:32:39.005Z,13.40
2022-10-13T17:35:06.740Z,13.40
2022-10-13T17:37:33.612Z,13.40
2022-10-13T17:40:00.394Z,13.40
2022-10-13T17:42:28.952Z,13.40
2022-10-13T17:44:55.691Z,13.40
2022-10-13T17:47:24.611Z,13.30
2022-10-13T17:49:51.422Z,13.30
2022-10-13T17:52:18.242Z,13.20
2022-10-13T17:54:45.052Z,13.20
2022-10-13T17:57:11.809Z,13.10
2022-10-13T17:59:38.652Z,13.10
2022-10-13T18:02:12.736Z,13.10
2022-10-13T18:04:42.061Z,13.00
2022-10-13T18:07:11.027Z,13.00
2022-10-13T18:09:39.929Z,13.00
2022-10-13T18:12:06.772Z,13.00
2022-10-13T18:14:33.608Z,13.00
2022-10-13T18:17:00.349Z,12.90
2022-10-13T18:19:27.121Z,12.90
2022-10-13T18:21:53.976Z,12.90
2022-10-13T18:24:20.997Z,12.90
2022-10-13T18:26:52.370Z,12.90
2022-10-13T18:29:21.412Z,12.80
2022-10-13T18:31:52.851Z,12.80
2022-10-13T18:34:19.659Z,12.80
2022-10-13T18:36:54.389Z,12.80
2022-10-13T18:39:25.911Z,12.80
2022-10-13T18:41:53.114Z,12.80
2022-10-13T18:44:20.116Z,12.80
2022-10-13T18:46:52.201Z,12.80
2022-10-13T18:49:23.200Z,12.80
2022-10-13T18:51:52.741Z,12.70
2022-10-13T18:54:21.721Z,12.70
2022-10-13T18:56:51.034Z,12.70
2022-10-13T18:59:17.775Z,12.60
2022-10-13T19:01:46.927Z,12.60
2022-10-13T19:04:14.869Z,12.60
2022-10-13T19:06:41.649Z,12.50
2022-10-13T19:09:12.139Z,12.50
2022-10-13T19:11:39.073Z,12.50
2022-10-13T19:14:07.090Z,12.50
2022-10-13T19:16:38.744Z,12.50
2022-10-13T19:19:05.675Z,12.50
2022-10-13T19:21:32.771Z,12.50
2022-10-13T19:24:02.004Z,12.40
2022-10-13T19:26:31.214Z,12.40
2022-10-13T19:29:02.937Z,12.40
2022-10-13T19:31:32.847Z,12.40
2022-10-13T19:34:02.311Z,12.30
2022-10-13T19:36:30.368Z,12.30
2022-10-13T19:38:57.333Z,12.30
2022-10-13T19:41:24.221Z,12.30
2022-10-13T19:43:53.471Z,12.30
2022-10-13T19:46:20.228Z,12.30
2022-10-13T19:48:49.519Z,12.30
2022-10-13T19:51:16.376Z,12.30
2022-10-13T19:53:45.220Z,12.30
2022-10-13T19:56:22.848Z,12.20
2022-10-13T19:58:52.193Z,12.20
2022-10-13T20:01:19.976Z,12.20
2022-10-13T20:03:47.279Z,12.20
2022-10-13T20:06:14.337Z,12.10
2022-10-13T20:08:43.543Z,12.10
2022-10-13T20:11:14.139Z,12.10
2022-10-13T20:13:42.946Z,12.10
2022-10-13T20:16:13.660Z,12.10
2022-10-13T20:18:40.712Z,12.00
2022-10-13T20:21:11.227Z,12.00
2022-10-13T20:23:38.117Z,12.00
2022-10-13T20:26:16.175Z,12.00
2022-10-13T20:28:46.608Z,12.00
2022-10-13T20:31:14.306Z,12.00
2022-10-13T20:33:41.155Z,12.00
2022-10-13T20:36:12.990Z,11.90
2022-10-13T20:38:39.955Z,11.90
2022-10-13T20:41:22.765Z,11.90
2022-10-13T20:43:49.557Z,11.90
2022-10-13T20:46:19.946Z,11.80
2022-10-13T20:51:33.675Z,11.80
2022-10-13T20:54:00.887Z,11.90
2022-10-13T20:56:27.690Z,11.80
2022-10-13T20:58:59.146Z,11.80
2022-10-13T21:01:25.918Z,11.80
2022-10-13T21:03:55.765Z,11.80
2022-10-13T21:06:23.242Z,11.80
2022-10-13T21:08:50.066Z,11.70
2022-10-13T21:11:17.322Z,11.70
2022-10-13T21:13:44.259Z,11.70
2022-10-13T21:16:14.890Z,11.70
2022-10-13T21:18:45.533Z,11.60
2022-10-13T21:21:18.016Z,11.60
2022-10-13T21:23:45.097Z,11.50
2022-10-13T21:26:18.900Z,11.50
2022-10-13T21:28:48.164Z,11.50
2022-10-13T21:31:15.460Z,11.50
2022-10-13T21:33:44.768Z,11.40
2022-10-13T21:36:15.716Z,11.40
2022-10-13T21:38:47.483Z,11.40
2022-10-13T21:41:14.398Z,11.40
2022-10-13T21:43:41.178Z,11.30
2022-10-13T21:46:12.048Z,11.30
2022-10-13T21:48:39.126Z,11.30
2022-10-13T21:51:16.379Z,11.30
2022-10-13T21:53:51.053Z,11.30
2022-10-13T21:56:18.121Z,11.20
2022-10-13T21:58:48.928Z,11.20
2022-10-13T22:01:20.845Z,11.10
2022-10-13T22:03:47.934Z,11.10
2022-10-13T22:06:20.397Z,11.10
2022-10-13T22:08:50.886Z,11.10
2022-10-13T22:11:17.878Z,11.00
2022-10-13T22:13:44.669Z,11.00
2022-10-13T22:16:19.526Z,11.00
2022-10-13T22:18:46.487Z,11.00
2022-10-13T22:21:15.587Z,10.90
2022-10-13T22:23:42.622Z,10.90
2022-10-13T22:26:09.738Z,10.90
2022-10-13T22:28:37.594Z,10.90
2022-10-13T22:31:10.062Z,10.90
2022-10-13T22:33:37.408Z,10.90
2022-10-13T22:36:20.291Z,10.80
2022-10-13T22:38:47.524Z,10.80
2022-10-13T22:41:14.836Z,10.80
2022-10-13T22:43:48.028Z,10.80
2022-10-13T22:46:16.350Z,10.80
2022-10-13T22:48:43.396Z,10.80
2022-10-13T22:51:10.853Z,10.70
2022-10-13T22:53:40.063Z,10.70
2022-10-13T22:56:08.086Z,10.70
2022-10-13T22:58:34.972Z,10.70
2022-10-13T23:01:09.249Z,10.60
2022-10-13T23:03:38.693Z,10.60
2022-10-13T23:06:06.716Z,10.60
2022-10-13T23:08:33.818Z,10.60
2022-10-13T23:11:02.705Z,10.60
2022-10-13T23:13:31.954Z,10.50
2022-10-13T23:16:09.374Z,10.50
2022-10-13T23:18:36.143Z,10.50
2022-10-13T23:21:08.973Z,10.50
2022-10-13T23:23:35.871Z,10.50
2022-10-13T23:26:06.993Z,10.50
2022-10-13T23:28:33.863Z,10.50
2022-10-13T23:31:04.948Z,10.50
2022-10-13T23:33:31.916Z,10.60
2022-10-13T23:36:02.009Z,10.50
2022-10-13T23:38:29.340Z,10.50
2022-10-13T23:40:58.655Z,10.50
2022-10-13T23:43:25.512Z,10.50
2022-10-13T23:45:54.780Z,10.50
2022-10-13T23:48:21.538Z,10.50
2022-10-13T23:50:48.362Z,10.50
2022-10-13T23:53:15.127Z,10.50
2022-10-13T23:55:42.047Z,10.50
2022-10-13T23:58:11.294Z,10.50
